Time;durP1;ratioP1;P1;durP2;ratioP2;P2;SDS_P1;SDS_P2;PMS_P1;PMS_P2;Temp;Humidity;BMP_temperature;BMP_pressure;BME280_temperature;BME280_humidity;BME280_pressure;Samples;Min_cycle;Max_cycle;Signal;HPM_P1;HPM_P2
2022/02/06 00:00:37;;;;;;;14.77;6.93;;;;;;;4.17;64.75;94493.84;5065048;28;20269;-78
2022/02/06 00:03:03;;;;;;;13.10;6.65;;;;;;;4.15;64.82;94509.13;5065044;28;20028;-79
2022/02/06 00:05:29;;;;;;;12.60;7.18;;;;;;;4.08;64.88;94512.00;5064794;28;20029;-78
2022/02/06 00:07:55;;;;;;;15.48;7.25;;;;;;;4.06;65.26;94503.56;5064817;28;20020;-78
2022/02/06 00:10:21;;;;;;;14.05;7.32;;;;;;;4.10;64.93;94512.56;5064741;28;20276;-78
2022/02/06 00:12:56;;;;;;;11.63;6.07;;;;;;;4.13;64.83;94516.50;5064544;28;20045;-79
2022/02/06 00:15:23;;;;;;;13.90;7.15;;;;;;;4.10;65.04;94519.69;5064667;28;20025;-78
2022/02/06 00:17:49;;;;;;;17.48;7.20;;;;;;;4.02;64.94;94521.72;5064242;28;20036;-78
2022/02/06 00:20:15;;;;;;;13.77;6.97;;;;;;;4.02;65.13;94531.50;5063388;28;20028;-79
2022/02/06 00:22:50;;;;;;;17.38;9.45;;;;;;;4.02;65.09;94528.84;5064046;28;20037;-78
2022/02/06 00:25:32;;;;;;;16.27;8.68;;;;;;;3.98;64.96;94530.41;5064369;28;20021;-79
2022/02/06 00:32:56;;;;;;;15.45;8.48;;;;;;;3.85;65.32;94541.41;5064512;28;20025;-79
2022/02/06 00:40:52;;;;;;;17.88;9.23;;;;;;;3.81;65.69;94536.66;5064370;28;20277;-79
2022/02/06 00:43:16;;;;;;;15.07;8.25;;;;;;;3.81;65.71;94526.09;5063861;28;20051;-79
2022/02/06 00:45:41;;;;;;;18.77;8.30;;;;;;;3.74;65.89;94525.50;5064180;28;20031;-79
2022/02/06 00:48:07;;;;;;;17.80;9.40;;;;;;;3.77;65.75;94525.03;5063570;28;20028;-79
2022/02/06 00:50:36;;;;;;;15.75;8.63;;;;;;;3.78;65.22;94526.59;5062263;28;20025;-79
2022/02/06 00:53:05;;;;;;;19.10;8.73;;;;;;;3.82;65.02;94526.88;5064062;28;20032;-79
2022/02/06 00:55:31;;;;;;;13.80;7.85;;;;;;;3.79;65.14;94522.91;5062716;28;20020;-79
2022/02/06 00:57:59;;;;;;;19.05;9.30;;;;;;;3.71;64.94;94517.34;5063809;28;20021;-78
2022/02/06 01:00:25;;;;;;;17.00;8.98;;;;;;;3.74;64.57;94509.69;5063584;28;20024;-78
2022/02/06 01:02:53;;;;;;;16.10;8.77;;;;;;;3.70;64.00;94508.59;5063854;28;20102;-79
2022/02/06 01:05:19;;;;;;;18.75;9.13;;;;;;;3.68;63.83;94499.38;5063629;28;20413;-79
2022/02/06 01:07:47;;;;;;;18.48;8.13;;;;;;;3.67;63.86;94498.59;5062681;28;20025;-78
2022/02/06 01:10:14;;;;;;;16.35;9.25;;;;;;;3.69;62.71;94495.69;5063902;28;20024;-78
2022/02/06 01:12:43;;;;;;;17.33;8.23;;;;;;;3.72;62.92;94484.63;5062473;28;20231;-78
2022/02/06 01:15:16;;;;;;;18.08;9.43;;;;;;;3.67;62.80;94492.53;5063556;28;20025;-78
2022/02/06 01:17:49;;;;;;;18.73;9.48;;;;;;;3.66;62.76;94485.66;5062505;28;20029;-78
2022/02/06 01:22:49;;;;;;;18.05;8.18;;;;;;;3.56;62.12;94486.38;5063323;28;20319;-78
2022/02/06 01:25:20;;;;;;;23.00;8.77;;;;;;;3.53;62.40;94487.69;5063462;28;20078;-78
2022/02/06 01:27:55;;;;;;;19.42;8.40;;;;;;;3.50;61.61;94485.56;5063565;28;20021;-78
2022/02/06 01:31:02;;;;;;;16.67;7.70;;;;;;;3.50;61.13;94485.56;5063312;28;20074;-78
2022/02/06 01:33:18;;;;;;;17.90;8.40;;;;;;;3.47;60.32;94482.63;5062137;28;20047;-78
2022/02/06 01:40:55;;;;;;;14.70;7.68;;;;;;;3.58;59.03;94489.53;5063270;28;20024;-79
2022/02/06 01:43:26;;;;;;;10.35;7.00;;;;;;;3.63;57.93;94502.78;5063129;28;20021;-78
2022/02/06 02:47:41;;;;;;;14.75;5.40;;;;;;;3.79;53.88;94480.72;5061142;28;20327;-79
2022/02/06 02:50:13;;;;;;;14.77;6.05;;;;;;;3.68;54.10;94486.19;5062279;28;20235;-79
2022/02/06 03:00:47;;;;;;;11.80;5.40;;;;;;;3.67;52.38;94484.63;5066180;28;20136;-79
2022/02/06 03:03:19;;;;;;;13.13;5.95;;;;;;;3.64;52.82;94488.53;5066169;28;20100;-79
2022/02/06 03:05:48;;;;;;;11.80;5.07;;;;;;;3.56;52.71;94492.47;5066356;28;20112;-79
2022/02/06 03:08:13;;;;;;;12.23;5.90;;;;;;;3.56;53.26;94499.53;5066184;28;20044;-79
2022/02/06 03:10:39;;;;;;;16.58;6.43;;;;;;;3.44;54.08;94499.75;5066009;28;20376;-79
2022/02/06 03:13:09;;;;;;;10.63;5.90;;;;;;;3.37;54.91;94504.44;5065805;28;20048;-79
2022/02/06 03:18:06;;;;;;;17.58;5.13;;;;;;;3.15;53.10;94496.59;5065736;28;20073;-79
2022/02/06 03:20:34;;;;;;;10.23;4.85;;;;;;;3.12;52.43;94497.91;5065720;28;20023;-78
2022/02/06 03:23:03;;;;;;;9.48;4.60;;;;;;;3.12;51.88;94507.66;5065848;28;20262;-78
2022/02/06 03:25:29;;;;;;;9.07;4.28;;;;;;;3.09;50.14;94497.59;5065697;28;20092;-78
2022/02/06 03:27:55;;;;;;;17.23;3.85;;;;;;;3.01;48.99;94496.22;5065485;28;20024;-78
2022/02/06 03:30:22;;;;;;;5.28;2.80;;;;;;;2.99;47.41;94485.13;5065616;28;20215;-79
2022/02/06 03:32:50;;;;;;;10.20;3.40;;;;;;;2.99;47.66;94488.59;5065501;28;20211;-78
2022/02/06 03:35:16;;;;;;;5.18;2.72;;;;;;;3.04;46.86;94494.94;5065727;28;20059;-78
2022/02/06 03:37:42;;;;;;;4.18;2.33;;;;;;;3.07;47.26;94495.22;5065280;28;20017;-78
2022/02/06 03:40:18;;;;;;;6.80;2.28;;;;;;;3.11;46.18;94495.50;5065185;28;20100;-79
2022/02/06 03:42:55;;;;;;;5.03;2.85;;;;;;;3.07;45.51;94479.41;5065300;28;20028;-79
2022/02/06 03:45:22;;;;;;;5.78;2.58;;;;;;;3.00;45.04;94489.38;5065263;28;20063;-79
2022/02/06 03:47:54;;;;;;;5.65;2.30;;;;;;;3.06;45.28;94490.22;5065408;28;20301;-79
2022/02/06 03:50:19;;;;;;;3.17;1.85;;;;;;;3.06;44.42;94485.72;5065023;28;20303;-78
2022/02/06 03:52:48;;;;;;;4.97;2.67;;;;;;;3.07;44.04;94489.16;5065335;28;20036;-79
2022/02/06 03:55:19;;;;;;;3.45;1.92;;;;;;;3.12;43.99;94489.22;5065184;28;20024;-79
2022/02/06 03:57:50;;;;;;;6.87;1.97;;;;;;;3.09;42.15;94473.91;5065205;28;20028;-78
2022/02/06 04:00:19;;;;;;;3.67;1.60;;;;;;;3.17;41.14;94482.13;5065089;28;20092;-78
2022/02/06 04:02:46;;;;;;;5.25;1.70;;;;;;;3.26;41.02;94477.22;5064199;28;20029;-78
2022/02/06 04:05:14;;;;;;;3.38;1.80;;;;;;;3.33;41.58;94488.31;5064911;28;20044;-78
2022/02/06 04:07:42;;;;;;;3.45;1.80;;;;;;;3.32;41.89;94478.06;5065027;28;20025;-79
2022/02/06 04:10:10;;;;;;;4.03;1.83;;;;;;;3.38;40.70;94482.31;5063833;28;20083;-78
2022/02/06 04:12:40;;;;;;;4.88;2.60;;;;;;;3.45;43.70;94484.72;5064693;28;20052;-79
2022/02/06 04:15:13;;;;;;;6.95;2.70;;;;;;;3.37;44.13;94486.75;5064757;28;20033;-80
2022/02/06 04:17:47;;;;;;;7.18;2.80;;;;;;;3.31;43.65;94495.69;5064552;28;20033;-78
2022/02/06 04:20:12;;;;;;;5.50;2.58;;;;;;;3.27;44.32;94494.59;5064597;28;20029;-79
2022/02/06 04:22:37;;;;;;;10.38;2.40;;;;;;;3.22;43.48;94490.09;5064467;28;20079;-79
2022/02/06 04:25:04;;;;;;;10.13;4.07;;;;;;;3.22;43.43;94487.44;5064423;28;20017;-79
2022/02/06 04:27:30;;;;;;;9.15;2.97;;;;;;;3.25;43.60;94490.63;5064574;28;20087;-79
2022/02/06 04:29:58;;;;;;;8.65;2.80;;;;;;;3.14;43.53;94487.13;5064506;28;20099;-79
2022/02/06 04:32:26;;;;;;;6.50;2.35;;;;;;;2.96;44.02;94490.91;5064352;28;20078;-78
2022/02/06 04:34:54;;;;;;;8.82;2.90;;;;;;;2.97;44.72;94501.19;5064489;28;20035;-78
2022/02/06 04:38:34;;;;;;;7.35;2.90;;;;;;;2.98;44.73;94496.72;5064433;28;20025;-79
2022/02/06 04:43:11;;;;;;;7.05;2.92;;;;;;;2.99;45.29;94507.00;5064185;28;20288;-79
2022/02/06 05:15:55;;;;;;;7.88;2.95;;;;;;;2.44;48.19;94523.78;5063550;28;20132;-79
2022/02/06 05:21:47;;;;;;;11.65;3.50;;;;;;;2.18;48.95;94525.34;5062437;28;20025;-79
2022/02/06 05:29:01;;;;;;;9.85;3.55;;;;;;;2.10;49.62;94529.19;5063605;28;20036;-79
2022/02/06 05:34:13;;;;;;;9.13;3.72;;;;;;;2.21;50.21;94530.09;5063311;28;20039;-79
2022/02/06 05:36:39;;;;;;;8.73;3.72;;;;;;;2.23;50.00;94535.91;5063171;28;20029;-79
2022/02/06 05:39:05;;;;;;;9.95;4.05;;;;;;;2.21;50.20;94544.03;5063255;28;20032;-79
2022/02/06 05:41:30;;;;;;;11.35;3.70;;;;;;;2.23;50.54;94543.81;5063200;28;20048;-79
2022/02/06 05:44:05;;;;;;;12.98;5.82;;;;;;;2.24;50.24;94539.31;5063077;28;20033;-79
2022/02/06 05:46:30;;;;;;;21.90;6.68;;;;;;;2.16;50.59;94549.25;5063304;28;20012;-79
2022/02/06 05:48:56;;;;;;;25.08;8.48;;;;;;;2.15;50.43;94552.91;5063140;28;20261;-79
2022/02/06 05:51:21;;;;;;;17.48;7.68;;;;;;;2.14;50.59;94545.28;5063010;28;20037;-79
2022/02/06 05:53:47;;;;;;;21.50;8.90;;;;;;;2.14;50.33;94553.94;5062949;28;20058;-79
2022/02/06 05:56:16;;;;;;;22.25;8.73;;;;;;;2.14;50.34;94555.78;5062786;28;20035;-79
2022/02/06 05:58:43;;;;;;;23.67;9.15;;;;;;;2.16;50.43;94556.34;5062877;28;20043;-79
2022/02/06 06:01:09;;;;;;;26.33;9.57;;;;;;;2.18;50.20;94555.06;5062822;28;20023;-79
2022/02/06 06:03:35;;;;;;;24.88;9.77;;;;;;;2.21;50.70;94556.41;5061547;28;20017;-79
2022/02/06 06:06:01;;;;;;;23.75;9.07;;;;;;;2.19;50.96;94561.09;5062676;28;20020;-79
2022/02/06 06:08:29;;;;;;;21.10;8.25;;;;;;;2.20;50.78;94555.59;5062758;28;20024;-79
2022/02/06 06:10:55;;;;;;;14.65;5.97;;;;;;;2.19;49.55;94553.22;5062527;28;20222;-79
2022/02/06 06:13:21;;;;;;;12.20;5.40;;;;;;;2.24;49.35;94557.75;5062765;28;20088;-78
2022/02/06 06:15:46;;;;;;;15.05;5.25;;;;;;;2.27;49.17;94558.06;5062647;28;20026;-79
2022/02/06 06:18:14;;;;;;;15.32;5.25;;;;;;;2.36;49.18;94564.50;5062406;28;20083;-79
2022/02/06 06:20:42;;;;;;;12.05;4.57;;;;;;;2.40;49.07;94564.78;5062591;28;20029;-79
2022/02/06 06:23:09;;;;;;;15.93;5.72;;;;;;;2.47;49.11;94564.63;5062457;28;20052;-79
2022/02/06 06:25:39;;;;;;;11.48;5.32;;;;;;;2.44;49.00;94559.84;5062515;28;20017;-79
2022/02/06 06:28:06;;;;;;;11.55;5.18;;;;;;;2.51;49.17;94566.50;5062288;28;20209;-79
2022/02/06 06:30:35;;;;;;;10.60;5.22;;;;;;;2.58;49.26;94568.94;5062533;28;20244;-79
2022/02/06 06:33:07;;;;;;;17.70;7.00;;;;;;;2.67;49.35;94570.13;5061994;28;20028;-79
2022/02/06 06:35:33;;;;;;;16.70;6.40;;;;;;;2.75;49.17;94574.16;5062475;28;20017;-79
2022/02/06 06:38:00;;;;;;;10.38;5.53;;;;;;;2.78;49.40;94568.41;5062158;28;20032;-78
2022/02/06 06:40:30;;;;;;;12.10;5.38;;;;;;;2.87;49.15;94564.31;5062432;28;20266;-78
2022/02/06 06:42:56;;;;;;;12.60;5.72;;;;;;;2.93;49.01;94568.56;5062529;28;20021;-78
2022/02/06 06:45:22;;;;;;;16.60;5.50;;;;;;;3.03;48.37;94567.06;5062303;28;20107;-78
2022/02/06 06:47:59;;;;;;;12.35;5.03;;;;;;;3.11;48.06;94569.25;5062065;28;20264;-78
2022/02/06 06:50:33;;;;;;;19.10;7.38;;;;;;;3.19;47.91;94582.00;5062414;28;20222;-79
2022/02/06 06:53:02;;;;;;;20.40;8.10;;;;;;;3.23;47.95;94583.09;5062259;28;20025;-78
2022/02/06 06:55:30;;;;;;;18.20;7.95;;;;;;;3.28;47.81;94585.78;5062140;28;20027;-79
2022/02/06 06:58:05;;;;;;;19.45;6.57;;;;;;;3.36;47.48;94581.91;5062177;28;20052;-79
2022/02/06 07:00:55;;;;;;;28.30;7.63;;;;;;;3.40;47.58;94575.88;5062080;28;20027;-79
2022/02/06 07:03:24;;;;;;;21.55;7.13;;;;;;;3.52;46.94;94572.25;5062310;28;20025;-79
2022/02/06 07:05:50;;;;;;;16.13;7.43;;;;;;;3.61;46.70;94583.97;5062196;28;20020;-78
2022/02/06 07:08:19;;;;;;;19.25;5.93;;;;;;;3.66;46.73;94586.63;5062080;28;20021;-78
2022/02/06 07:10:45;;;;;;;13.20;6.03;;;;;;;3.71;47.00;94586.66;5062023;28;20016;-79
2022/02/06 07:13:13;;;;;;;18.17;6.03;;;;;;;3.77;47.09;94584.88;5061673;28;20083;-78
2022/02/06 07:15:38;;;;;;;18.23;6.93;;;;;;;3.87;47.42;94587.59;5061993;28;20017;-79
2022/02/06 07:18:04;;;;;;;12.27;6.32;;;;;;;3.94;47.84;94592.63;5062023;28;20104;-78
2022/02/06 07:20:34;;;;;;;14.30;6.45;;;;;;;3.98;48.53;94597.16;5061974;28;20035;-78
2022/02/06 07:23:00;;;;;;;23.30;7.47;;;;;;;4.01;49.20;94596.66;5062026;28;20227;-79
2022/02/06 07:25:28;;;;;;;15.10;7.97;;;;;;;4.04;49.87;94603.25;5062097;28;20219;-80
2022/02/06 07:27:55;;;;;;;22.08;7.90;;;;;;;4.08;50.06;94599.06;5062100;28;20013;-79
2022/02/06 07:30:20;;;;;;;19.90;8.50;;;;;;;4.13;50.03;94599.13;5061748;28;20326;-79
2022/02/06 07:32:46;;;;;;;16.95;8.15;;;;;;;4.21;50.17;94596.00;5061784;28;20029;-79
2022/02/06 07:35:13;;;;;;;18.10;8.48;;;;;;;4.22;50.46;94602.06;5061427;28;20025;-80
2022/02/06 07:37:55;;;;;;;17.80;8.27;;;;;;;4.28;50.29;94595.78;5061712;28;20032;-79
2022/02/06 07:40:24;;;;;;;17.25;8.00;;;;;;;4.34;50.10;94602.66;5061837;28;20220;-79
2022/02/06 07:42:50;;;;;;;16.55;7.68;;;;;;;4.37;49.79;94591.59;5061776;28;20021;-79
2022/02/06 07:45:19;;;;;;;21.17;7.72;;;;;;;4.43;50.04;94597.69;5064491;28;20131;-79
2022/02/06 07:47:46;;;;;;;15.55;7.18;;;;;;;4.47;49.48;94588.22;5065536;28;20236;-80
2022/02/06 07:50:13;;;;;;;16.08;7.70;;;;;;;4.55;48.70;94597.50;5065375;28;20036;-79
2022/02/06 07:52:39;;;;;;;23.52;8.13;;;;;;;4.59;48.69;94586.16;5065235;28;20025;-79
2022/02/06 07:55:07;;;;;;;15.73;7.25;;;;;;;4.60;48.76;94585.13;5065074;28;20029;-79
2022/02/06 07:57:38;;;;;;;14.40;7.85;;;;;;;4.66;48.45;94603.59;5064641;28;20036;-79
2022/02/06 08:00:07;;;;;;;18.77;8.30;;;;;;;4.69;48.35;94588.06;5065000;28;20075;-79
2022/02/06 08:02:33;;;;;;;20.90;7.90;;;;;;;4.73;47.78;94591.75;5063766;28;20021;-80
2022/02/06 08:04:59;;;;;;;21.23;8.52;;;;;;;4.78;47.76;94594.44;5064787;28;20095;-80
2022/02/06 08:07:25;;;;;;;15.77;7.38;;;;;;;4.86;47.33;94603.69;5064980;28;20250;-79
2022/02/06 08:09:58;;;;;;;18.33;8.40;;;;;;;4.90;47.48;94594.19;5064884;28;20013;-79
2022/02/06 08:12:31;;;;;;;19.20;7.30;;;;;;;4.91;47.50;94587.88;5064977;28;20033;-79
2022/02/06 08:15:00;;;;;;;18.08;8.13;;;;;;;4.99;47.12;94595.28;5064970;28;20284;-79
2022/02/06 08:17:31;;;;;;;22.15;9.00;;;;;;;5.06;47.31;94602.97;5064882;28;20021;-79
2022/02/06 08:19:59;;;;;;;19.05;9.07;;;;;;;5.11;47.70;94589.78;5064765;28;20021;-79
2022/02/06 08:22:25;;;;;;;18.75;8.00;;;;;;;5.19;47.68;94599.03;5065019;28;20032;-79
2022/02/06 08:24:51;;;;;;;17.77;8.75;;;;;;;5.25;47.59;94594.56;5064448;28;20208;-79
2022/02/06 08:27:18;;;;;;;20.50;8.82;;;;;;;5.34;46.40;94598.28;5064767;28;20227;-79
2022/02/06 08:29:46;;;;;;;15.82;7.18;;;;;;;5.42;45.13;94595.91;5064677;28;20092;-80
2022/02/06 08:32:12;;;;;;;15.00;7.70;;;;;;;5.45;44.77;94593.81;5064613;28;20025;-80
2022/02/06 08:34:40;;;;;;;17.80;7.20;;;;;;;5.50;44.52;94596.47;5064228;28;20016;-80
2022/02/06 08:37:06;;;;;;;15.63;8.55;;;;;;;5.56;44.09;94588.28;5064395;28;20044;-79
2022/02/06 08:39:34;;;;;;;20.13;7.95;;;;;;;5.61;43.90;94595.41;5063052;28;20024;-79
2022/02/06 08:42:03;;;;;;;16.27;7.03;;;;;;;5.66;42.41;94591.97;5064070;28;20017;-79
2022/02/06 08:44:28;;;;;;;18.70;6.88;;;;;;;5.67;42.18;94583.78;5064074;28;20016;-79
2022/02/06 08:46:56;;;;;;;16.83;7.55;;;;;;;5.68;42.39;94577.44;5064140;28;20013;-79
2022/02/06 08:49:23;;;;;;;14.57;8.23;;;;;;;5.68;42.14;94587.22;5063902;28;20021;-79
2022/02/06 08:51:49;;;;;;;13.68;6.68;;;;;;;5.57;41.58;94581.13;5064062;28;20382;-79
2022/02/06 08:54:17;;;;;;;17.83;7.05;;;;;;;5.64;42.11;94586.97;5064099;28;20247;-79
2022/02/06 08:56:42;;;;;;;15.82;7.53;;;;;;;5.73;41.25;94589.88;5063202;28;20077;-79
2022/02/06 08:59:12;;;;;;;17.75;6.88;;;;;;;5.77;40.80;94590.94;5063712;28;20242;-80
2022/02/06 09:01:38;;;;;;;13.68;5.68;;;;;;;5.84;39.71;94583.50;5063567;28;20029;-79
2022/02/06 09:04:04;;;;;;;15.38;5.57;;;;;;;5.89;39.11;94593.31;5063575;28;20059;-79
2022/02/06 09:06:36;;;;;;;13.55;5.85;;;;;;;5.96;39.37;94583.28;5063354;28;20215;-80
2022/02/06 09:09:04;;;;;;;13.95;5.75;;;;;;;6.00;38.54;94587.78;5063628;28;20032;-79
2022/02/06 09:11:30;;;;;;;11.50;4.70;;;;;;;6.02;37.65;94587.50;5062324;28;20115;-79
2022/02/06 09:13:56;;;;;;;12.68;4.75;;;;;;;6.03;35.92;94589.09;5063516;28;20272;-79
2022/02/06 09:16:26;;;;;;;10.43;3.75;;;;;;;6.02;35.28;94592.78;5062809;28;20017;-79
2022/02/06 09:18:53;;;;;;;15.07;4.07;;;;;;;5.99;35.05;94588.06;5063223;28;20028;-79
2022/02/06 09:21:21;;;;;;;10.50;4.45;;;;;;;5.99;35.83;94593.34;5063107;28;20204;-79
2022/02/06 09:23:47;;;;;;;7.85;3.92;;;;;;;5.99;37.05;94596.78;5063441;28;20029;-79
2022/02/06 09:26:12;;;;;;;10.68;4.40;;;;;;;5.92;36.61;94590.94;5063259;28;20044;-79
2022/02/06 09:28:38;;;;;;;11.23;4.30;;;;;;;5.95;36.65;94587.00;5063032;28;20083;-79
2022/02/06 09:31:03;;;;;;;9.88;4.97;;;;;;;5.98;37.68;94586.44;5063020;28;20039;-79
2022/02/06 09:35:54;;;;;;;17.50;6.53;;;;;;;6.10;38.06;94592.25;5063214;28;20017;-79
2022/02/06 09:38:19;;;;;;;14.40;6.10;;;;;;;6.15;37.54;94576.38;5062956;28;20040;-79
2022/02/06 09:40:46;;;;;;;11.70;5.68;;;;;;;6.20;37.88;94572.94;5063027;28;20032;-79
2022/02/06 09:43:13;;;;;;;13.30;5.70;;;;;;;6.25;38.20;94582.72;5063004;28;20223;-78
2022/02/06 09:45:41;;;;;;;11.52;4.90;;;;;;;6.32;38.24;94576.09;5062893;28;20025;-79
2022/02/06 09:48:10;;;;;;;10.07;5.22;;;;;;;6.35;38.74;94575.56;5062842;28;20013;-79
2022/02/06 09:50:36;;;;;;;7.95;3.47;;;;;;;6.38;37.71;94576.88;5062653;28;20027;-78
2022/02/06 09:53:05;;;;;;;10.88;4.82;;;;;;;6.43;36.76;94576.84;5062758;28;20020;-80
2022/02/06 09:55:30;;;;;;;11.65;4.22;;;;;;;6.38;36.94;94571.56;5062783;28;20123;-80
2022/02/06 09:58:13;;;;;;;9.15;4.25;;;;;;;6.51;37.16;94562.25;5062606;28;20307;-80
2022/02/06 10:00:39;;;;;;;;;;;;;;;6.57;37.42;94559.34;5063075;28;20036;-80
2022/02/06 10:03:11;;;;;;;10.05;4.40;;;;;;;6.63;37.24;94544.22;5062519;28;19904;-80
2022/02/06 10:05:39;;;;;;;13.70;4.93;;;;;;;6.66;38.09;94542.91;5062711;28;20029;-80
2022/02/06 10:08:38;;;;;;;14.57;4.07;;;;;;;6.72;37.00;94536.50;5061939;28;20046;-79
2022/02/06 10:11:11;;;;;;;13.20;4.97;;;;;;;6.83;37.33;94535.38;5062383;28;20044;-79
2022/02/06 10:13:40;;;;;;;12.95;4.65;;;;;;;6.95;37.19;94530.56;5062397;28;20035;-80
2022/02/06 10:16:07;;;;;;;10.50;4.25;;;;;;;7.04;37.61;94533.41;5062535;28;20235;-80
2022/02/06 10:18:33;;;;;;;11.10;4.00;;;;;;;7.21;36.14;94533.84;5062323;28;20035;-80
2022/02/06 10:20:59;;;;;;;7.45;3.50;;;;;;;7.06;35.79;94519.88;5062640;28;20222;-80
2022/02/06 10:23:42;;;;;;;11.98;4.10;;;;;;;7.12;36.14;94521.44;5062137;28;20024;-79
2022/02/06 10:26:26;;;;;;;8.38;3.97;;;;;;;7.21;35.20;94504.69;5062245;28;20361;-80
2022/02/06 10:29:26;;;;;;;9.82;3.75;;;;;;;7.16;35.69;94509.22;5062450;28;20029;-80
2022/02/06 10:32:17;;;;;;;8.98;4.28;;;;;;;7.23;35.26;94499.13;5062319;28;20228;-80
2022/02/06 10:34:44;;;;;;;8.55;4.35;;;;;;;7.27;35.46;94499.38;5059783;28;20082;-80
2022/02/06 10:37:18;;;;;;;9.02;3.88;;;;;;;7.23;35.15;94494.59;5062126;28;20033;-80
2022/02/06 10:40:01;;;;;;;13.15;4.72;;;;;;;7.19;35.73;94487.47;5062111;28;20052;-80
2022/02/06 10:42:33;;;;;;;8.27;4.00;;;;;;;7.35;35.74;94482.88;5062400;28;20020;-80
2022/02/06 10:45:21;;;;;;;9.23;4.97;;;;;;;7.50;35.06;94474.78;5062532;28;20033;-80
2022/02/06 10:47:52;;;;;;;17.40;4.38;;;;;;;7.58;34.35;94471.50;5062111;28;20226;-80
2022/02/06 10:50:27;;;;;;;9.60;3.75;;;;;;;7.63;34.77;94473.31;5062253;28;20091;-80
2022/02/06 10:53:10;;;;;;;7.45;3.95;;;;;;;7.68;34.79;94468.00;5062128;28;20029;-80
2022/02/06 10:55:50;;;;;;;8.98;4.20;;;;;;;7.78;34.43;94456.50;5062377;28;20017;-80
2022/02/06 10:58:18;;;;;;;11.77;4.65;;;;;;;7.86;33.94;94455.06;5060938;28;20223;-80
2022/02/06 11:00:43;;;;;;;8.65;3.95;;;;;;;7.88;34.88;94453.72;5062102;28;20021;-80
2022/02/06 11:03:27;;;;;;;7.63;4.57;;;;;;;8.04;35.16;94454.38;5062259;28;20024;-80
2022/02/06 11:05:55;;;;;;;11.70;4.68;;;;;;;8.16;35.25;94444.16;5062385;28;20025;-80
2022/02/06 11:08:29;;;;;;;12.43;5.22;;;;;;;8.35;34.48;94451.38;5062201;28;20024;-79
2022/02/06 11:11:09;;;;;;;10.40;4.22;;;;;;;8.40;34.28;94444.09;5061978;28;20025;-81
2022/02/06 11:13:38;;;;;;;8.93;3.97;;;;;;;8.52;33.87;94449.03;5062146;28;20265;-80
2022/02/06 11:16:16;;;;;;;9.00;4.32;;;;;;;8.56;33.99;94439.44;5061715;28;20024;-79
2022/02/06 11:18:51;;;;;;;9.07;4.05;;;;;;;8.59;33.02;94432.78;5063811;28;20028;-80
2022/02/06 11:21:18;;;;;;;6.90;3.55;;;;;;;8.56;33.08;94426.16;5065681;28;20207;-79
2022/02/06 11:23:55;;;;;;;8.23;3.78;;;;;;;8.56;32.62;94439.44;5065705;28;20029;-80
2022/02/06 11:26:23;;;;;;;19.25;7.22;;;;;;;8.62;34.86;94422.34;5065711;28;20235;-80
2022/02/06 11:28:50;;;;;;;16.52;7.95;;;;;;;8.72;36.40;94415.31;5065623;28;20026;-80
2022/02/06 11:31:17;;;;;;;15.57;7.32;;;;;;;8.92;36.75;94408.94;5065428;28;20028;-80
2022/02/06 11:33:43;;;;;;;19.70;6.45;;;;;;;9.01;35.47;94402.66;5064296;28;20021;-80
2022/02/06 11:42:58;;;;;;;15.98;6.68;;;;;;;9.17;34.97;94400.53;5065424;28;20119;-80
2022/02/06 11:45:21;;;;;;;11.23;5.25;;;;;;;9.53;34.22;94399.19;5057943;28;20227;-80
2022/02/06 11:47:55;;;;;;;18.40;6.72;;;;;;;9.69;34.55;94394.34;5065184;28;20021;-80
2022/02/06 11:50:21;;;;;;;13.25;6.38;;;;;;;9.84;35.10;94386.88;5065080;28;20307;-80
2022/02/06 11:53:00;;;;;;;18.15;5.78;;;;;;;9.97;33.58;94379.19;5065132;28;20020;-80
2022/02/06 11:55:44;;;;;;;13.80;6.07;;;;;;;10.02;33.31;94366.56;5065454;28;20028;-80
2022/02/06 11:58:26;;;;;;;13.75;5.75;;;;;;;10.08;33.81;94369.16;5065011;28;20286;-80
2022/02/06 12:01:06;;;;;;;12.63;6.47;;;;;;;10.17;34.08;94370.81;5064688;28;20091;-80
2022/02/06 12:03:47;;;;;;;12.50;6.05;;;;;;;10.28;33.28;94354.59;5065231;28;20024;-80
2022/02/06 12:06:13;;;;;;;15.77;6.60;;;;;;;10.31;32.96;94365.50;5063685;28;20025;-80
2022/02/06 12:09:00;;;;;;;13.98;4.72;;;;;;;10.40;32.61;94354.91;5064641;28;20025;-80
2022/02/06 12:11:29;;;;;;;11.88;5.22;;;;;;;10.46;32.23;94344.94;5064625;28;20098;-80
2022/02/06 12:14:24;;;;;;;18.95;7.57;;;;;;;10.59;33.22;94352.91;5064814;28;20096;-80
2022/02/06 12:17:45;;;;;;;15.95;6.82;;;;;;;10.61;33.44;94345.41;5064696;28;20025;-80
2022/02/06 12:20:13;;;;;;;16.98;6.65;;;;;;;10.70;33.28;94342.78;5064645;28;20094;-80
2022/02/06 12:22:43;;;;;;;13.50;6.53;;;;;;;10.77;33.16;94334.41;5064471;28;20279;-80
2022/02/06 12:25:26;;;;;;;11.27;6.13;;;;;;;10.86;32.24;94340.56;5064429;28;20311;-81
2022/02/06 12:28:18;;;;;;;10.52;5.88;;;;;;;10.93;32.34;94335.63;5064299;28;20017;-80
2022/02/06 12:30:45;;;;;;;14.10;6.22;;;;;;;11.03;30.60;94335.38;5063574;28;20051;-81
2022/02/06 12:33:36;;;;;;;12.63;6.43;;;;;;;11.06;31.28;94330.50;5064336;28;20119;-80
2022/02/06 12:38:46;;;;;;;13.63;5.68;;;;;;;11.14;31.43;94329.78;5064117;28;20036;-80
2022/02/06 12:41:24;;;;;;;15.10;5.88;;;;;;;11.24;31.36;94324.19;5063991;28;20025;-80
2022/02/06 12:43:55;;;;;;;12.48;6.15;;;;;;;11.30;30.94;94316.84;5063832;28;20058;-80
2022/02/06 12:46:22;;;;;;;11.27;5.68;;;;;;;11.37;30.43;94315.31;5064117;28;20044;-80
2022/02/06 12:48:47;;;;;;;12.73;5.50;;;;;;;11.43;30.26;94311.41;5063629;28;20032;-81
2022/02/06 12:51:13;;;;;;;11.82;5.68;;;;;;;11.52;30.36;94308.00;5063513;28;20031;-81
2022/02/06 12:53:38;;;;;;;19.38;5.57;;;;;;;11.62;29.76;94302.38;5063780;28;20025;-81
2022/02/06 12:56:04;;;;;;;20.00;6.82;;;;;;;11.73;29.96;94302.91;5062677;28;20207;-80
2022/02/06 12:58:30;;;;;;;13.57;6.07;;;;;;;11.77;29.89;94293.97;5063483;28;20027;-80
2022/02/06 13:00:56;;;;;;;19.88;6.05;;;;;;;11.85;29.68;94295.88;5063742;28;20021;-80
2022/02/06 13:03:37;;;;;;;15.85;5.90;;;;;;;12.01;29.51;94292.81;5063518;28;20096;-80
2022/02/06 13:06:09;;;;;;;8.27;4.75;;;;;;;12.19;29.80;94289.06;5063713;28;20025;-80
2022/02/06 13:08:39;;;;;;;8.93;5.07;;;;;;;12.38;29.34;94286.09;5062527;28;20127;-80
2022/02/06 13:11:13;;;;;;;16.17;5.45;;;;;;;12.54;29.21;94282.97;5063530;28;20049;-80
2022/02/06 13:13:54;;;;;;;12.55;5.28;;;;;;;12.65;28.48;94279.66;5063548;28;20043;-80
2022/02/06 13:22:51;;;;;;;13.57;6.13;;;;;;;12.73;29.80;94263.94;5059739;28;20288;-80
2022/02/06 13:30:21;;;;;;;13.82;6.22;;;;;;;13.11;29.10;94244.47;5063189;28;20020;-79
2022/02/06 13:32:55;;;;;;;11.77;5.57;;;;;;;13.18;28.72;94242.88;5062898;28;20025;-79
2022/02/06 13:38:03;;;;;;;14.10;6.10;;;;;;;13.34;28.15;94240.50;5063034;28;20040;-79
2022/02/06 13:40:32;;;;;;;14.60;6.18;;;;;;;13.42;27.90;94234.34;5063101;28;20029;-79
2022/02/06 13:42:57;;;;;;;11.38;5.57;;;;;;;13.52;28.14;94227.06;5061858;28;20080;-79
2022/02/06 13:45:24;;;;;;;23.33;6.97;;;;;;;13.54;28.18;94227.53;5063004;28;20210;-79
2022/02/06 13:47:51;;;;;;;11.63;6.15;;;;;;;13.55;28.20;94224.50;5062565;28;20115;-79
2022/02/06 13:50:17;;;;;;;11.02;6.15;;;;;;;13.51;28.43;94228.16;5062980;28;20021;-79
2022/02/06 13:52:45;;;;;;;15.10;6.90;;;;;;;13.45;28.66;94214.16;5062898;28;20104;-78
2022/02/06 13:55:13;;;;;;;15.68;5.60;;;;;;;13.47;28.26;94208.50;5062736;28;20032;-79
2022/02/06 13:57:39;;;;;;;16.15;7.63;;;;;;;13.44;28.18;94215.28;5062362;28;20033;-78
2022/02/06 14:00:09;;;;;;;13.32;6.47;;;;;;;13.34;28.10;94215.66;5063064;28;20219;-79
2022/02/06 14:02:35;;;;;;;18.33;6.60;;;;;;;13.35;28.54;94199.25;5063010;28;20087;-79
2022/02/06 14:05:08;;;;;;;14.27;6.38;;;;;;;13.32;28.48;94205.25;5061549;28;20315;-80
2022/02/06 14:07:33;;;;;;;19.33;7.75;;;;;;;13.21;28.43;94198.66;5061578;28;20263;-79
2022/02/06 14:10:10;;;;;;;10.32;6.70;;;;;;;13.13;28.49;94205.63;5062322;28;20032;-79
2022/02/06 14:12:53;;;;;;;16.17;6.45;;;;;;;13.04;28.58;94213.66;5062418;28;20044;-79
2022/02/06 14:15:20;;;;;;;;;;;;;;;12.95;28.33;94210.22;5062694;28;20024;-79
2022/02/06 14:17:49;;;;;;;21.05;9.35;;;;;;;12.77;28.98;94206.81;5062328;28;19909;-78
2022/02/06 14:20:19;;;;;;;25.92;12.10;;;;;;;12.64;29.26;94205.88;5062564;28;20065;-79
2022/02/06 14:22:49;;;;;;;32.67;14.20;;;;;;;12.58;29.26;94193.78;5062149;28;20032;-78
2022/02/06 14:25:29;;;;;;;52.47;22.50;;;;;;;12.42;29.53;94187.34;5062181;28;20031;-78
2022/02/06 14:27:55;;;;;;;63.20;26.45;;;;;;;12.24;30.00;94197.28;5062234;28;20033;-78